Time;durP1;ratioP1;P1;durP2;ratioP2;P2;SDS_P1;SDS_P2;PMS_P1;PMS_P2;Temp;Humidity;BMP_temperature;BMP_pressure;BME280_temperature;BME280_humidity;BME280_pressure;Samples;Min_cycle;Max_cycle;Signal;HPM_P1;HPM_P2
2023/01/11 04:23:22;;;;;;;;;;;;;;;;;;;;;
2023/01/11 04:43:23;;;;;;;;;;;;;;;;;;;;;
2023/01/11 05:23:04;;;;;;;17.85;2.80;;;10.10;99.90;;;;;;5893448;24;20099;-93
2023/01/11 05:26:08;;;;;;;;;;;;;;;;;;;;;
2023/01/11 05:29:07;;;;;;;;;;;;;;;;;;;;;
2023/01/11 05:52:43;;;;;;;20.85;3.40;;;9.80;99.90;;;;;;5781070;24;20010;-92
2023/01/11 05:55:35;;;;;;;19.13;3.15;;;9.80;99.90;;;;;;5836432;24;20047;-94
2023/01/11 05:58:34;;;;;;;;;;;;;;;;;;;;;
2023/01/11 06:01:22;;;;;;;;;;;;;;;;;;;;;
2023/01/11 06:04:04;;;;;;;;;;;9.70;99.90;;;;;;6042720;23;20421;-93
2023/01/11 06:06:31;;;;;;;26.52;3.58;;;9.60;99.90;;;;;;6038142;23;20057;-90
2023/01/11 06:09:20;;;;;;;21.42;3.60;;;9.70;99.90;;;;;;6062215;23;20007;-91
2023/01/11 06:12:40;;;;;;;;;;;;;;;;;;;;;
2023/01/11 06:18:45;;;;;;;21.58;3.30;;;9.50;99.90;;;;;;6088549;23;20206;-94
2023/01/11 06:28:37;;;;;;;;;;;;;;;;;;;;;
2023/01/11 06:38:11;;;;;;;;;;;;;;;;;;;;;
2023/01/11 06:41:27;;;;;;;;;;;;;;;;;;;;;
2023/01/11 06:51:24;;;;;;;;;;;;;;;;;;;;;
2023/01/11 06:57:31;;;;;;;;;;;;;;;;;;;;;
2023/01/11 07:00:47;;;;;;;25.77;3.80;;;9.20;99.90;;;;;;5951764;24;20080;-91
2023/01/11 07:04:06;;;;;;;;;;;;;;;;;;;;;
2023/01/11 07:07:25;;;;;;;;;;;;;;;;;;;;;
2023/01/11 07:13:30;;;;;;;;;;;;;;;;;;;;;
2023/01/11 07:23:18;;;;;;;;;;;;;;;;;;;;;
2023/01/11 07:29:52;;;;;;;;;;;;;;;;;;;;;
2023/01/11 07:33:09;;;;;;;;;;;;;;;;;;;;;
2023/01/11 07:36:05;;;;;;;;;;;;;;;;;;;;;
2023/01/11 07:38:49;;;;;;;;;;;;;;;;;;;;;
2023/01/11 07:45:22;;;;;;;26.05;4.32;;;8.90;99.90;;;;;;6151440;23;20017;-92
2023/01/11 07:48:47;;;;;;;;;;;;;;;;;;;;;
2023/01/11 08:18:26;;;;;;;;;;;;;;;;;;;;;
2023/01/11 08:21:24;;;;;;;;;;;;;;;;;;;;;
2023/01/11 08:31:01;;;;;;;;;;;;;;;;;;;;;
2023/01/11 08:33:47;;;;;;;28.80;4.50;;;8.50;99.90;;;;;;6210370;23;20095;-90
2023/01/11 09:19:04;;;;;;;;;;;;;;;;;;;;;
2023/01/11 09:32:22;;;;;;;;;;;;;;;;;;;;;
2023/01/11 09:38:56;;;;;;;;;;;;;;;;;;;;;
2023/01/11 09:45:46;;;;;;;;;;;;;;;;;;;;;
2023/01/11 10:41:34;;;;;;;;;;;;;;;;;;;;;
2023/01/11 10:44:46;;;;;;;30.45;4.10;;;10.50;99.90;;;;;;6179086;23;20079;-91
2023/01/11 10:50:55;;;;;;;;;;;;;;;;;;;;;
2023/01/11 10:54:11;;;;;;;31.13;4.57;;;10.80;99.90;;;;;;6228164;22;20522;-90
2023/01/11 10:57:07;;;;;;;;;;;;;;;;;;;;;
2023/01/11 11:00:08;;;;;;;33.42;4.85;;;10.90;99.90;;;;;;6303535;22;20090;-92
2023/01/11 11:06:35;;;;;;;23.33;4.43;;;11.00;99.90;;;;;;6286535;22;20007;-91
2023/01/11 11:10:12;;;;;;;;;;;;;;;;;;;;;
2023/01/11 11:13:21;;;;;;;25.90;4.57;;;11.10;99.90;;;;;;6295871;22;20466;-92
2023/01/11 11:16:10;;;;;;;35.20;4.55;;;11.10;99.90;;;;;;6301311;22;20043;-91
2023/01/11 11:19:02;;;;;;;;;;;;;;;;;;;;;
2023/01/11 11:22:08;;;;;;;24.55;4.30;;;11.10;99.90;;;;;;6303306;22;20091;-91
2023/01/11 11:25:36;;;;;;;;;;;;;;;;;;;;;
2023/01/11 11:28:39;;;;;;;;;;;;;;;;;;;;;
2023/01/11 11:41:28;;;;;;;27.45;4.10;;;11.30;99.90;;;;;;6067920;23;20558;-94
2023/01/11 12:09:14;;;;;;;;;;;;;;;;;;;;;
2023/01/11 12:55:04;;;;;;;;;;;;;;;;;;;;;
2023/01/11 13:13:54;;;;;;;;;;;;;;;;;;;;;
2023/01/11 15:32:50;;;;;;;;;;;;;;;;;;;;;
2023/01/11 15:48:31;;;;;;;;;;;;;;;;;;;;;
2023/01/11 16:19:24;;;;;;;;;;;;;;;;;;;;;
2023/01/11 16:25:39;;;;;;;;;;;;;;;;;;;;;
2023/01/11 16:50:34;;;;;;;;;;;;;;;;;;;;;
2023/01/11 17:53:55;;;;;;;;;;;;;;;;;;;;;
2023/01/11 18:40:29;;;;;;;26.75;5.43;;;;;;;;;;5158316;27;20015;-89
2023/01/11 18:47:00;;;;;;;;;;;;;;;;;;;;;
2023/01/11 18:53:01;;;;;;;28.52;5.43;;;;;;;;;;5053963;28;20020;-91
2023/01/11 18:55:52;;;;;;;23.00;4.70;;;;;;;;;;5037556;28;20075;-93
2023/01/11 18:58:43;;;;;;;23.00;5.20;;;;;;;;;;5113102;27;20008;-92
2023/01/11 19:01:29;;;;;;;27.38;4.88;;;;;;;;;;5125639;28;20016;-96
2023/01/11 19:04:12;;;;;;;25.85;4.78;;;;;;;;;;5120882;28;20063;-95
2023/01/11 19:06:39;;;;;;;31.13;5.30;;;;;;;;;;5115172;28;20032;-94
2023/01/11 19:39:34;;;;;;;29.42;4.90;;;;;;;;;;4855835;29;20069;-89
2023/01/11 19:42:46;;;;;;;24.52;5.10;;;;;;;;;;4887671;29;20557;-89
2023/01/11 19:52:23;;;;;;;;;;;;;;;;;;;;;
2023/01/11 20:01:20;;;;;;;22.10;4.90;;;;;;;;;;4841711;29;20090;-92
2023/01/11 20:04:04;;;;;;;;;;;;;;;;;;;;;
2023/01/11 20:13:49;;;;;;;;;;;;;;;;;;;;;
2023/01/11 20:16:47;;;;;;;29.23;4.93;;;10.80;99.90;;;;;;4827155;29;20039;-94
2023/01/11 20:19:12;;;;;;;25.20;4.82;;;10.80;99.90;;;;;;4841759;29;20054;-92
2023/01/11 20:21:38;;;;;;;22.88;4.60;;;10.80;99.90;;;;;;4782611;29;20092;-89
2023/01/11 20:24:28;;;;;;;35.95;5.47;;;10.80;99.90;;;;;;4917564;28;20046;-91
2023/01/11 20:27:17;;;;;;;21.98;5.00;;;10.80;99.90;;;;;;4983639;28;20046;-94
2023/01/11 20:29:44;;;;;;;29.30;5.50;;;10.80;99.90;;;;;;4981077;28;20046;-88
2023/01/11 20:32:10;;;;;;;25.58;4.78;;;10.80;99.90;;;;;;4982177;28;20041;-93
2023/01/11 20:34:35;;;;;;;23.13;4.00;;;10.80;99.90;;;;;;4980079;28;20338;-93
2023/01/11 20:37:01;;;;;;;21.50;5.05;;;10.80;99.90;;;;;;4996791;28;20049;-92
2023/01/11 20:39:27;;;;;;;22.27;4.43;;;10.80;99.90;;;;;;4978599;28;20517;-93
2023/01/11 20:41:52;;;;;;;31.10;4.57;;;10.80;99.90;;;;;;4977711;28;20042;-93
2023/01/11 20:44:23;;;;;;;16.55;4.22;;;10.80;99.90;;;;;;4977597;28;20026;-91
2023/01/11 20:46:51;;;;;;;29.10;4.47;;;10.90;99.90;;;;;;4993424;28;20042;-91
2023/01/11 20:49:18;;;;;;;26.67;4.75;;;10.80;99.90;;;;;;4977361;28;20034;-89
2023/01/11 20:51:45;;;;;;;23.70;4.95;;;10.90;99.90;;;;;;4984279;28;20038;-92
2023/01/11 20:54:13;;;;;;;20.85;4.35;;;10.80;99.90;;;;;;4993463;28;20014;-92
2023/01/11 20:56:40;;;;;;;28.90;4.72;;;10.90;99.90;;;;;;4997129;28;20035;-93
2023/01/11 20:59:24;;;;;;;23.65;4.32;;;10.90;99.90;;;;;;5017990;28;20102;-93
2023/01/11 21:01:50;;;;;;;24.00;3.63;;;10.90;99.90;;;;;;5018803;28;20518;-93
2023/01/11 21:04:17;;;;;;;19.50;4.13;;;10.90;99.90;;;;;;5018066;28;20034;-93
2023/01/11 21:06:46;;;;;;;19.38;3.58;;;11.00;99.90;;;;;;5015535;28;20034;-94
2023/01/11 21:09:14;;;;;;;23.20;3.63;;;10.90;99.90;;;;;;5014532;28;20069;-91
2023/01/11 21:11:40;;;;;;;24.63;4.10;;;10.90;99.90;;;;;;5013616;28;20497;-91
2023/01/11 21:14:10;;;;;;;27.55;3.75;;;10.90;99.90;;;;;;4996591;28;20030;-92
2023/01/11 21:16:39;;;;;;;24.60;4.40;;;10.80;99.90;;;;;;5012947;28;20029;-92
2023/01/11 21:19:04;;;;;;;20.38;3.50;;;10.80;99.90;;;;;;5013077;28;20061;-92
2023/01/11 21:21:32;;;;;;;22.70;3.92;;;10.80;99.90;;;;;;5013660;28;20111;-93
2023/01/11 21:24:00;;;;;;;22.02;4.10;;;10.80;99.90;;;;;;5013735;28;20070;-93
2023/01/11 21:26:27;;;;;;;21.25;3.88;;;10.80;99.90;;;;;;5012643;28;20398;-92
2023/01/11 21:28:58;;;;;;;20.48;4.07;;;10.80;99.90;;;;;;5013793;28;20061;-91
2023/01/11 21:31:26;;;;;;;21.33;3.47;;;10.80;99.90;;;;;;4996468;28;20042;-92
2023/01/11 21:33:51;;;;;;;24.10;3.50;;;10.90;99.90;;;;;;4993728;28;20031;-91
2023/01/11 21:36:20;;;;;;;21.38;4.10;;;10.90;99.90;;;;;;4995545;28;20100;-92
2023/01/11 21:38:46;;;;;;;18.35;4.13;;;10.90;99.90;;;;;;5011756;28;20026;-93
2023/01/11 21:41:18;;;;;;;15.18;3.80;;;10.90;99.90;;;;;;5010451;28;20390;-93
2023/01/11 21:43:44;;;;;;;21.45;3.63;;;11.00;99.90;;;;;;5011183;28;20034;-91
2023/01/11 21:46:13;;;;;;;15.20;3.30;;;11.00;99.90;;;;;;4995964;28;20404;-91
2023/01/11 21:48:39;;;;;;;24.08;4.00;;;11.10;99.90;;;;;;5009698;28;20031;-92
2023/01/11 21:51:08;;;;;;;20.05;3.67;;;11.10;99.90;;;;;;5009262;28;20026;-93
2023/01/11 21:53:37;;;;;;;32.45;4.88;;;11.10;99.90;;;;;;4996040;28;20090;-92
2023/01/11 21:56:06;;;;;;;27.17;4.03;;;11.10;99.90;;;;;;4994833;28;20490;-94
2023/01/11 21:58:33;;;;;;;30.08;4.00;;;11.10;99.90;;;;;;5010260;28;20046;-93
2023/01/11 22:01:07;;;;;;;26.45;4.13;;;11.10;99.90;;;;;;4994794;28;20030;-93
2023/01/11 22:03:33;;;;;;;24.52;4.00;;;11.20;99.90;;;;;;5010286;28;20022;-93
2023/01/11 22:06:00;;;;;;;25.63;4.80;;;11.20;99.90;;;;;;4998724;28;20031;-92
2023/01/11 22:08:26;;;;;;;23.25;4.72;;;11.20;99.90;;;;;;4995860;28;20034;-93
2023/01/11 22:10:59;;;;;;;24.10;4.40;;;11.20;99.90;;;;;;5011092;28;20030;-89
2023/01/11 22:13:31;;;;;;;21.33;3.80;;;11.20;99.90;;;;;;4995121;28;20682;-92
2023/01/11 22:16:05;;;;;;;18.35;3.55;;;11.20;99.90;;;;;;5010026;28;20070;-93
2023/01/11 22:18:31;;;;;;;25.92;4.30;;;11.20;99.90;;;;;;4996459;28;20011;-93
2023/01/11 22:21:07;;;;;;;34.38;4.47;;;11.20;99.90;;;;;;5012274;28;20026;-94
2023/01/11 22:23:33;;;;;;;35.53;4.60;;;11.20;99.90;;;;;;5014358;28;20095;-95
2023/01/11 22:26:11;;;;;;;21.92;4.28;;;11.20;99.90;;;;;;4997267;28;20057;-92
2023/01/11 22:29:10;;;;;;;30.33;4.60;;;11.20;99.90;;;;;;5011515;28;20084;-94
2023/01/11 22:31:23;;;;;;;20.17;4.32;;;11.20;99.90;;;;;;4998053;28;20050;-93
2023/01/11 22:33:55;;;;;;;31.13;5.22;;;11.10;99.90;;;;;;5013895;28;20026;-93
2023/01/11 22:36:23;;;;;;;30.13;5.13;;;11.10;99.90;;;;;;5002413;28;20045;-92
2023/01/11 22:38:50;;;;;;;26.42;4.57;;;11.10;99.90;;;;;;5012828;28;20019;-92
2023/01/11 22:41:16;;;;;;;29.30;4.78;;;11.20;99.90;;;;;;4996843;28;20057;-93
2023/01/11 22:43:43;;;;;;;26.77;4.72;;;11.10;99.90;;;;;;4996069;28;20046;-92
2023/01/11 22:46:14;;;;;;;32.47;5.32;;;11.20;99.90;;;;;;5011573;28;20033;-94
2023/01/11 22:48:39;;;;;;;25.20;4.53;;;11.20;99.90;;;;;;4996065;28;20086;-93
2023/01/11 22:51:06;;;;;;;30.08;4.68;;;11.20;99.90;;;;;;4994626;28;20054;-94
2023/01/11 22:53:41;;;;;;;28.88;4.82;;;11.20;99.90;;;;;;5011143;28;20080;-92
2023/01/11 22:56:13;;;;;;;27.20;4.05;;;11.30;99.90;;;;;;5009315;28;20035;-93
2023/01/11 22:58:39;;;;;;;30.83;5.32;;;11.30;99.90;;;;;;5010395;28;20094;-93
2023/01/11 23:01:17;;;;;;;26.70;5.10;;;11.30;99.90;;;;;;4998044;28;20033;-91
2023/01/11 23:03:46;;;;;;;33.30;5.22;;;11.30;99.90;;;;;;5011955;28;20023;-94
2023/01/11 23:06:19;;;;;;;23.55;3.67;;;11.20;99.90;;;;;;4999323;28;20033;-93
2023/01/11 23:08:47;;;;;;;25.77;4.22;;;11.20;99.90;;;;;;5015970;28;20034;-92
2023/01/11 23:13:51;;;;;;;;;;;11.20;99.90;;;;;;5016191;28;20039;-92
2023/01/11 23:14:01;;;;;;;26.02;4.20;;;11.20;99.90;;;;;;5001974;28;19977;-92
2023/01/11 23:16:27;;;;;;;24.90;4.15;;;11.10;99.90;;;;;;5018701;28;20528;-91
2023/01/11 23:18:53;;;;;;;27.70;5.60;;;11.10;99.90;;;;;;5004858;28;20046;-91
2023/01/11 23:21:20;;;;;;;29.50;4.70;;;11.10;99.90;;;;;;5019376;28;20061;-93
2023/01/11 23:23:48;;;;;;;26.67;4.13;;;11.10;99.90;;;;;;5004415;28;20612;-92
2023/01/11 23:26:16;;;;;;;29.35;4.03;;;11.10;99.90;;;;;;5018489;28;20117;-93
2023/01/11 23:28:44;;;;;;;;;;;11.10;99.90;;;;;;5020941;28;20042;-92
2023/01/11 23:31:15;;;;;;;24.30;4.20;;;11.10;99.90;;;;;;5008841;28;19905;-92
2023/01/11 23:33:50;;;;;;;33.63;5.15;;;11.00;99.90;;;;;;5023794;28;20042;-92
2023/01/11 23:36:19;;;;;;;31.17;5.00;;;11.00;99.90;;;;;;5021503;28;20043;-93
2023/01/11 23:38:54;;;;;;;23.27;4.45;;;11.00;99.90;;;;;;5011827;28;20430;-89
2023/01/11 23:44:10;;;;;;;36.28;6.13;;;11.00;99.90;;;;;;5013374;28;20049;-93
2023/01/11 23:49:38;;;;;;;29.30;5.05;;;10.90;99.90;;;;;;5016848;28;20044;-89
2023/01/11 23:52:29;;;;;;;32.15;5.32;;;10.90;99.90;;;;;;5016057;28;20039;-91
2023/01/11 23:55:13;;;;;;;30.38;4.60;;;10.90;99.90;;;;;;5014415;28;20080;-93
2023/01/11 23:58:07;;;;;;;32.92;5.63;;;11.00;99.90;;;;;;5027897;28;20034;-93
